createdAt,value
2018-07-26T00:01:14.250Z,4.7
2018-07-26T00:02:30.129Z,4.8
2018-07-26T00:03:45.996Z,4.9
2018-07-26T00:05:01.920Z,5.3
2018-07-26T00:06:17.821Z,5.8
2018-07-26T00:07:33.701Z,5.5
2018-07-26T00:08:49.584Z,5.9
2018-07-26T00:10:05.477Z,5.3
2018-07-26T00:11:21.323Z,5.5
2018-07-26T00:12:37.201Z,5.9
2018-07-26T00:13:53.060Z,5.5
2018-07-26T00:15:08.954Z,5.6
2018-07-26T00:16:24.874Z,5.5
2018-07-26T00:17:40.720Z,5.6
2018-07-26T00:18:56.628Z,5.8
2018-07-26T00:20:12.493Z,5.3
2018-07-26T00:21:28.407Z,5.2
2018-07-26T00:22:44.298Z,5.5
2018-07-26T00:24:00.218Z,5.8
2018-07-26T00:25:16.083Z,5.6
2018-07-26T00:26:31.957Z,5.8
2018-07-26T00:27:47.848Z,5.6
2018-07-26T00:29:03.749Z,5.8
2018-07-26T00:30:19.645Z,5.4
2018-07-26T00:31:35.655Z,5.4
2018-07-26T00:32:51.545Z,5.4
2018-07-26T00:34:07.432Z,5.6
2018-07-26T00:35:23.299Z,5.3
2018-07-26T00:36:39.166Z,5.8
2018-07-26T00:37:55.094Z,5.4
2018-07-26T00:39:11.010Z,5.5
2018-07-26T00:40:26.862Z,4.9
2018-07-26T00:41:42.745Z,5.5
2018-07-26T00:42:58.613Z,5.3
2018-07-26T00:44:14.519Z,5.4
2018-07-26T00:45:30.399Z,5.4
2018-07-26T00:46:46.320Z,5.2
2018-07-26T00:48:02.205Z,5.4
2018-07-26T00:49:18.103Z,5.6
2018-07-26T00:50:35.010Z,5.7
2018-07-26T00:51:50.920Z,5.6
2018-07-26T00:53:06.804Z,5.8
2018-07-26T00:54:22.804Z,6.2
2018-07-26T00:55:38.665Z,5.6
2018-07-26T00:56:54.547Z,5.6
2018-07-26T00:58:10.452Z,5.7
2018-07-26T00:59:26.302Z,6.1
2018-07-26T01:00:42.224Z,6.3
2018-07-26T01:01:58.133Z,5.5
2018-07-26T01:03:14.050Z,5.9
2018-07-26T01:04:29.925Z,6
2018-07-26T01:05:45.791Z,5.6
2018-07-26T01:07:01.672Z,6
2018-07-26T01:08:17.541Z,5.9
2018-07-26T01:09:33.469Z,6.1
2018-07-26T01:10:49.318Z,6
2018-07-26T01:12:05.221Z,5.5
2018-07-26T01:13:21.063Z,5.7
2018-07-26T01:14:36.924Z,5.9
2018-07-26T01:15:52.789Z,5.6
2018-07-26T01:17:08.659Z,5.9
2018-07-26T01:18:24.509Z,6.5
2018-07-26T01:19:40.365Z,6.4
2018-07-26T01:20:56.209Z,5.8
2018-07-26T01:22:12.107Z,5.6
2018-07-26T01:23:27.963Z,5.6
2018-07-26T01:24:43.817Z,6.4
2018-07-26T01:25:59.680Z,6.3
2018-07-26T01:27:15.555Z,5.7
2018-07-26T01:28:31.472Z,6.3
2018-07-26T01:29:47.358Z,6.3
2018-07-26T01:31:03.192Z,5.8
2018-07-26T01:32:19.085Z,6.3
2018-07-26T01:33:34.994Z,5.9
2018-07-26T01:34:50.933Z,6.2
2018-07-26T01:36:06.786Z,5.7
2018-07-26T01:37:22.664Z,6.1
2018-07-26T01:38:38.525Z,6.3
2018-07-26T01:39:55.385Z,5.7
2018-07-26T01:41:11.303Z,5.8
2018-07-26T01:42:27.170Z,5.8
2018-07-26T01:43:43.064Z,5.7
2018-07-26T01:44:58.917Z,5.8
2018-07-26T01:46:14.754Z,6
2018-07-26T01:47:30.772Z,5.8
2018-07-26T01:48:46.688Z,6.3
2018-07-26T01:50:02.501Z,6.1
2018-07-26T01:51:18.368Z,6
2018-07-26T01:52:34.206Z,6
2018-07-26T01:53:50.107Z,6
2018-07-26T01:56:46.783Z,5.8
2018-07-26T01:58:02.657Z,5.9
2018-07-26T01:59:18.532Z,5.8
2018-07-26T02:00:34.431Z,5.7
2018-07-26T02:01:50.393Z,5.6
2018-07-26T02:03:06.236Z,5.8
2018-07-26T02:04:22.139Z,6.1
2018-07-26T02:05:38.020Z,5.8
2018-07-26T02:06:53.898Z,5.7
2018-07-26T02:08:09.768Z,5.7
2018-07-26T02:09:25.642Z,5.8
2018-07-26T02:10:41.535Z,5.2
2018-07-26T02:11:57.425Z,5.7
2018-07-26T02:13:13.290Z,5.4
2018-07-26T02:14:29.210Z,5.4
2018-07-26T02:15:45.114Z,5.9
2018-07-26T02:17:00.981Z,5.8
2018-07-26T02:18:16.855Z,5.5
2018-07-26T02:19:32.756Z,5.9
2018-07-26T02:20:48.636Z,5.9
2018-07-26T02:22:04.522Z,5.6
2018-07-26T02:23:20.384Z,5.8
2018-07-26T02:24:36.272Z,5.7
2018-07-26T02:25:52.119Z,6
2018-07-26T02:27:08.031Z,6.1
2018-07-26T02:28:23.931Z,5.9
2018-07-26T02:29:39.781Z,6
2018-07-26T02:30:55.762Z,6.2
2018-07-26T02:32:11.545Z,6
2018-07-26T02:33:27.417Z,6.2
2018-07-26T02:34:43.295Z,6.1
2018-07-26T02:35:59.167Z,6.1
2018-07-26T02:37:15.059Z,6
2018-07-26T02:38:30.927Z,5.9
2018-07-26T02:39:46.847Z,6.3
2018-07-26T02:41:02.690Z,6.2
2018-07-26T02:42:18.568Z,5.9
2018-07-26T02:43:34.445Z,5.7
2018-07-26T02:44:50.324Z,5.8
2018-07-26T02:46:06.195Z,5.6
2018-07-26T02:47:22.211Z,6.2
2018-07-26T02:48:38.116Z,6
2018-07-26T02:49:53.973Z,6.1
2018-07-26T02:51:09.826Z,6.3
2018-07-26T02:52:25.818Z,6.7
2018-07-26T02:53:41.688Z,6.2
2018-07-26T02:54:57.593Z,6.1
2018-07-26T02:56:13.564Z,5.9
2018-07-26T02:57:29.448Z,6
2018-07-26T02:58:45.345Z,6.1
2018-07-26T03:00:01.232Z,6.1
2018-07-26T03:01:17.086Z,5.9
2018-07-26T03:02:32.999Z,5.8
2018-07-26T03:03:48.895Z,6.2
2018-07-26T03:05:04.751Z,6.3
2018-07-26T03:06:20.614Z,5.8
2018-07-26T03:07:36.509Z,6.2
2018-07-26T03:08:52.409Z,5.5
2018-07-26T03:10:08.307Z,5.9
2018-07-26T03:11:24.171Z,5.9
2018-07-26T03:12:40.077Z,5.9
2018-07-26T03:13:55.967Z,5.9
2018-07-26T03:15:11.826Z,6.2
2018-07-26T03:16:27.748Z,5.7
2018-07-26T03:17:43.641Z,5.7
2018-07-26T03:18:59.554Z,6.2
2018-07-26T03:20:15.404Z,6.4
2018-07-26T03:21:31.304Z,6.2
2018-07-26T03:22:47.168Z,6.1
2018-07-26T03:24:03.106Z,6.1
2018-07-26T03:25:18.994Z,6.2
2018-07-26T03:26:34.906Z,6.6
2018-07-26T03:27:50.788Z,6
2018-07-26T03:29:06.685Z,6.5
2018-07-26T03:30:22.545Z,6.4
2018-07-26T03:31:38.404Z,6.3
2018-07-26T03:32:54.348Z,6.4
2018-07-26T03:34:10.193Z,6.4
2018-07-26T03:35:26.071Z,6.2
2018-07-26T03:36:41.931Z,6.5
2018-07-26T03:37:57.867Z,6.4
2018-07-26T03:39:13.777Z,6.3
2018-07-26T03:40:29.641Z,6.1
2018-07-26T03:41:45.511Z,5.9
2018-07-26T03:43:01.383Z,6.2
2018-07-26T03:44:17.277Z,6.9
2018-07-26T03:45:33.193Z,6.5
2018-07-26T03:46:49.081Z,6.5
2018-07-26T03:48:04.970Z,6.8
2018-07-26T03:49:20.883Z,6.4
2018-07-26T03:50:36.787Z,6.2
2018-07-26T03:51:52.655Z,6.7
2018-07-26T03:53:08.604Z,6.4
2018-07-26T03:54:24.535Z,6.6
2018-07-26T03:55:40.457Z,6.4
2018-07-26T03:56:56.311Z,6.8
2018-07-26T03:58:12.965Z,6.4
2018-07-26T03:59:28.824Z,7.1
2018-07-26T04:00:44.683Z,6.6
2018-07-26T04:02:00.599Z,6.8
2018-07-26T04:03:16.549Z,6.8
2018-07-26T04:04:32.403Z,6.7
2018-07-26T04:05:48.274Z,7.4
2018-07-26T04:07:04.131Z,7.2
2018-07-26T04:08:20.009Z,6.9
2018-07-26T04:09:35.877Z,7.2
2018-07-26T04:10:51.757Z,7.9
2018-07-26T04:12:07.624Z,7.1
2018-07-26T04:13:23.507Z,6.9
2018-07-26T04:14:39.451Z,7.1
2018-07-26T04:15:55.337Z,7.1
2018-07-26T04:17:11.220Z,6.6
2018-07-26T04:18:27.140Z,7.3
2018-07-26T04:19:43.057Z,6.9
2018-07-26T04:20:58.946Z,7
2018-07-26T04:22:14.840Z,6.6
2018-07-26T04:23:30.753Z,7.3
2018-07-26T04:24:46.732Z,7.1
2018-07-26T04:26:02.702Z,6.6
2018-07-26T04:27:18.558Z,7.1
2018-07-26T04:28:34.513Z,7.2
2018-07-26T04:29:50.378Z,7
2018-07-26T04:31:06.309Z,7.1
2018-07-26T04:32:22.252Z,6.7
2018-07-26T04:33:38.192Z,6.6
2018-07-26T04:34:54.092Z,7.2
2018-07-26T04:36:10.017Z,6.9
2018-07-26T04:37:25.925Z,6.9
2018-07-26T04:38:41.867Z,6.9
2018-07-26T04:39:57.757Z,6.8
2018-07-26T04:41:13.704Z,7.2
2018-07-26T04:42:29.663Z,6.6
2018-07-26T04:43:45.656Z,6.8
2018-07-26T04:45:01.571Z,7.1
2018-07-26T04:46:17.524Z,6.8
2018-07-26T04:47:34.437Z,6.6
2018-07-26T04:48:50.388Z,7.1
2018-07-26T04:50:06.339Z,7
2018-07-26T04:51:22.240Z,7.3
2018-07-26T04:52:38.229Z,6.7
2018-07-26T04:53:54.153Z,7
2018-07-26T04:55:10.117Z,6.9
2018-07-26T04:56:26.028Z,6.9
2018-07-26T04:57:41.937Z,7.3
2018-07-26T04:58:57.860Z,7.4
2018-07-26T05:00:13.777Z,7.2
2018-07-26T05:01:29.614Z,7
2018-07-26T05:02:45.585Z,7.4
2018-07-26T05:04:01.488Z,7.2
2018-07-26T05:05:17.372Z,7
2018-07-26T05:06:33.269Z,6.7
2018-07-26T05:07:49.181Z,7
2018-07-26T05:09:05.058Z,6.8
2018-07-26T05:10:20.933Z,7.2
2018-07-26T05:11:36.791Z,7.2
2018-07-26T05:12:52.701Z,7
2018-07-26T05:14:08.578Z,6.8
2018-07-26T05:15:24.467Z,7.3
2018-07-26T05:16:40.366Z,6.5
2018-07-26T05:17:56.271Z,7
2018-07-26T05:19:12.227Z,6.8
2018-07-26T05:20:28.068Z,7.2
2018-07-26T05:21:43.951Z,7.1
2018-07-26T05:22:59.849Z,6.8
2018-07-26T05:24:15.734Z,6.5
2018-07-26T05:25:31.663Z,6.3
2018-07-26T05:26:47.554Z,6.7
2018-07-26T05:28:03.413Z,6.6
2018-07-26T05:29:19.312Z,6.5
2018-07-26T05:30:35.211Z,6.9
2018-07-26T05:31:51.083Z,6.6
2018-07-26T05:33:06.933Z,6.6
2018-07-26T05:34:22.877Z,8.8
2018-07-26T05:35:38.783Z,10.6
2018-07-26T05:36:54.666Z,8.1
2018-07-26T05:38:10.556Z,7.3
2018-07-26T05:39:26.494Z,6.7
2018-07-26T05:40:42.399Z,6.7
2018-07-26T05:41:58.275Z,6.2
2018-07-26T05:43:14.211Z,6.5
2018-07-26T05:44:30.091Z,6.4
2018-07-26T05:45:45.984Z,6.3
2018-07-26T05:47:01.895Z,6.3
2018-07-26T05:48:17.773Z,6.5
2018-07-26T05:49:33.697Z,6.7
2018-07-26T05:50:49.651Z,6.3
2018-07-26T05:52:05.532Z,6.4
2018-07-26T05:53:21.526Z,5.8
2018-07-26T05:54:37.332Z,5.8
2018-07-26T05:55:53.231Z,5.4
2018-07-26T05:57:09.085Z,6.2
2018-07-26T05:58:25.032Z,6.1
2018-07-26T05:59:40.935Z,5.9
2018-07-26T06:00:56.810Z,6.5
2018-07-26T06:02:12.674Z,6.7
2018-07-26T06:03:28.587Z,6.7
2018-07-26T06:04:44.496Z,6.5
2018-07-26T06:06:00.390Z,6.2
2018-07-26T06:07:16.274Z,6.4
2018-07-26T06:08:32.138Z,6.1
2018-07-26T06:09:48.049Z,5.9
2018-07-26T06:11:03.937Z,6.4
2018-07-26T06:12:19.853Z,6.5
2018-07-26T06:13:35.750Z,6
2018-07-26T06:14:51.616Z,5.8
2018-07-26T06:16:07.508Z,5.9
2018-07-26T06:17:23.372Z,6.6
2018-07-26T06:18:39.248Z,5.8
2018-07-26T06:19:55.119Z,5.9
2018-07-26T06:21:11.017Z,5.9
2018-07-26T06:22:26.888Z,6.2
2018-07-26T06:23:42.755Z,5.9
2018-07-26T06:24:58.651Z,5.6
2018-07-26T06:26:14.546Z,5.5
2018-07-26T06:27:30.506Z,5.8
2018-07-26T06:28:46.366Z,5.7
2018-07-26T06:30:02.253Z,5.6
2018-07-26T06:31:18.184Z,5.9
2018-07-26T06:32:34.067Z,5.7
2018-07-26T06:33:50.083Z,5.9
2018-07-26T06:35:05.937Z,5.6
2018-07-26T06:36:21.847Z,5.8
2018-07-26T06:37:37.772Z,5.8
2018-07-26T06:38:54.670Z,6.3
2018-07-26T06:40:10.592Z,7.6
2018-07-26T06:41:26.571Z,6.7
2018-07-26T06:42:42.446Z,6.2
2018-07-26T06:43:58.366Z,6.1
2018-07-26T06:45:14.304Z,5.7
2018-07-26T06:46:30.286Z,6.2
2018-07-26T06:47:46.168Z,5.8
2018-07-26T06:49:02.082Z,5.9
2018-07-26T06:50:18.055Z,6.1
2018-07-26T06:51:33.931Z,5.9
2018-07-26T06:52:49.826Z,6.1
2018-07-26T06:54:05.736Z,6.5
2018-07-26T06:55:21.635Z,6.7
2018-07-26T06:56:37.547Z,6.1
2018-07-26T06:57:53.490Z,5.8
2018-07-26T06:59:09.370Z,6
2018-07-26T07:00:25.264Z,6
2018-07-26T07:01:41.127Z,5.7
2018-07-26T07:02:57.016Z,5.8
2018-07-26T07:04:13.060Z,6.1
2018-07-26T07:05:28.951Z,5.9
2018-07-26T07:06:44.848Z,5.8
2018-07-26T07:08:00.740Z,5.6
2018-07-26T07:09:16.626Z,5.5
2018-07-26T07:10:32.490Z,6.3
2018-07-26T07:11:48.434Z,5.5
2018-07-26T07:13:04.334Z,6.3
2018-07-26T07:14:20.235Z,5.7
2018-07-26T07:15:36.124Z,6
2018-07-26T07:16:52.069Z,5.7
2018-07-26T07:18:08.017Z,5.8
2018-07-26T07:19:23.958Z,6.1
2018-07-26T07:20:39.881Z,6.3
2018-07-26T07:21:55.794Z,6.3
2018-07-26T07:23:11.715Z,6.2
2018-07-26T07:24:27.618Z,6
2018-07-26T07:25:43.553Z,5.9
2018-07-26T07:26:59.438Z,6.4
2018-07-26T07:28:15.349Z,6
2018-07-26T07:29:31.298Z,6.2
2018-07-26T07:30:47.273Z,6.5
2018-07-26T07:32:03.177Z,5.7
2018-07-26T07:33:19.093Z,6.2
2018-07-26T07:34:35.000Z,6.2
2018-07-26T07:35:50.931Z,5.9
2018-07-26T07:37:06.814Z,6.5
2018-07-26T07:38:22.731Z,5.6
2018-07-26T07:39:38.669Z,6
2018-07-26T07:40:54.567Z,5.8
2018-07-26T07:42:10.491Z,6.2
2018-07-26T07:43:26.455Z,5.9
2018-07-26T07:44:42.346Z,6.1
2018-07-26T07:45:58.222Z,6
2018-07-26T07:47:14.168Z,5.9
2018-07-26T07:48:30.074Z,6.3
2018-07-26T07:49:45.888Z,6.3
2018-07-26T07:51:01.784Z,6.3
2018-07-26T07:52:17.690Z,6.1
2018-07-26T07:53:33.596Z,6.1
2018-07-26T07:54:49.527Z,6.4
2018-07-26T07:56:05.444Z,6.4
2018-07-26T07:57:21.323Z,6.2
2018-07-26T07:58:37.231Z,6.5
2018-07-26T07:59:53.166Z,6.5
2018-07-26T08:01:09.031Z,6.7
2018-07-26T08:02:24.993Z,6.2
2018-07-26T08:03:40.934Z,6.9
2018-07-26T08:04:57.819Z,6.6
2018-07-26T08:06:13.681Z,6.4
2018-07-26T08:07:29.612Z,6.2
2018-07-26T08:08:45.502Z,6.8
2018-07-26T08:10:01.390Z,6.3
2018-07-26T08:11:17.331Z,6.5
2018-07-26T08:12:33.198Z,6.5
2018-07-26T08:13:49.080Z,6.2
2018-07-26T08:15:04.951Z,7.2
2018-07-26T08:16:20.817Z,7.1
2018-07-26T08:17:36.754Z,6.6
2018-07-26T08:18:52.647Z,6.6
2018-07-26T08:20:08.554Z,6.8
2018-07-26T08:21:24.443Z,7.4
2018-07-26T08:22:40.325Z,7
2018-07-26T08:23:56.260Z,6.7
2018-07-26T08:25:12.157Z,6.9
2018-07-26T08:26:28.063Z,7.3
2018-07-26T08:27:43.949Z,7
2018-07-26T08:28:59.880Z,6.8
2018-07-26T08:30:15.770Z,7
2018-07-26T08:31:31.683Z,7.2
2018-07-26T08:32:47.540Z,7.1
2018-07-26T08:34:03.459Z,6.8
2018-07-26T08:35:19.350Z,7
2018-07-26T08:36:35.250Z,7.2
2018-07-26T08:37:51.134Z,7.4
2018-07-26T08:39:07.007Z,6.9
2018-07-26T08:40:22.895Z,6.8
2018-07-26T08:41:38.798Z,6.7
2018-07-26T08:42:54.685Z,7.3
2018-07-26T08:44:10.609Z,7.4
2018-07-26T08:45:26.517Z,7
2018-07-26T08:46:42.417Z,7.3
2018-07-26T08:47:58.295Z,6.9
2018-07-26T08:49:14.186Z,7.6
2018-07-26T08:50:30.117Z,7.4
2018-07-26T08:51:46.079Z,7.4
2018-07-26T08:53:02.040Z,7.7
2018-07-26T08:54:17.987Z,7.5
2018-07-26T08:55:33.818Z,7.4
2018-07-26T08:56:49.728Z,7.6
2018-07-26T08:58:05.618Z,8.2
2018-07-26T08:59:21.489Z,7.7
2018-07-26T09:00:37.433Z,7.6
2018-07-26T09:01:54.349Z,8
2018-07-26T09:03:10.242Z,7.3
2018-07-26T09:04:26.196Z,7
2018-07-26T09:05:42.073Z,7.6
2018-07-26T09:06:57.989Z,8.3
2018-07-26T09:08:13.872Z,8.9
2018-07-26T09:09:29.784Z,8.1
2018-07-26T09:10:45.760Z,7.5
2018-07-26T09:12:01.672Z,7.3
2018-07-26T09:13:17.555Z,7.6
2018-07-26T09:14:33.446Z,8
2018-07-26T09:15:49.377Z,8.2
2018-07-26T09:17:05.266Z,7.6
2018-07-26T09:18:21.329Z,7.9
2018-07-26T09:19:37.244Z,7.7
2018-07-26T09:20:53.141Z,8
2018-07-26T09:22:09.053Z,8.4
2018-07-26T09:23:25.612Z,8.5
2018-07-26T09:26:22.239Z,8
2018-07-26T09:27:38.299Z,8.6
2018-07-26T09:30:35.143Z,8.3
2018-07-26T09:31:51.104Z,8.6
2018-07-26T09:36:28.843Z,8.3
2018-07-26T09:37:44.820Z,8.6
2018-07-26T09:39:00.698Z,8.8
2018-07-26T09:40:16.669Z,9.4
2018-07-26T09:41:32.636Z,8.8
2018-07-26T09:42:48.563Z,9.9
2018-07-26T09:44:04.490Z,9.5
2018-07-26T09:45:20.413Z,8.6
2018-07-26T09:48:17.063Z,9
2018-07-26T09:49:32.950Z,8.3
2018-07-26T09:50:48.938Z,8.8
2018-07-26T09:52:04.952Z,9.4
2018-07-26T09:53:20.871Z,9
2018-07-26T09:54:36.942Z,9.5
2018-07-26T09:55:52.905Z,8.5
2018-07-26T09:57:08.809Z,9.1
2018-07-26T09:58:24.722Z,9.3
2018-07-26T09:59:40.597Z,9.9
2018-07-26T10:00:56.543Z,9
2018-07-26T10:02:12.521Z,8.6
2018-07-26T10:03:28.405Z,8.3
2018-07-26T10:04:44.332Z,8.8
2018-07-26T10:06:00.295Z,9.9
2018-07-26T10:07:16.209Z,9.5
2018-07-26T10:08:32.146Z,8.9
2018-07-26T10:09:48.065Z,9.1
2018-07-26T10:11:03.948Z,9.6
2018-07-26T10:12:20.836Z,9.7
2018-07-26T10:13:36.759Z,9.2
2018-07-26T10:14:52.722Z,10
2018-07-26T10:16:08.623Z,9.9
2018-07-26T10:17:24.549Z,9.5
2018-07-26T10:18:40.473Z,8.1
2018-07-26T10:19:56.426Z,9.4
2018-07-26T10:21:12.346Z,9.2
2018-07-26T10:22:28.277Z,9.5
2018-07-26T10:23:44.151Z,10.2
2018-07-26T10:25:00.095Z,9.4
2018-07-26T10:26:15.982Z,8.9
2018-07-26T10:27:31.857Z,8.3
2018-07-26T10:28:47.709Z,8.3
2018-07-26T10:30:03.658Z,9.1
2018-07-26T10:31:19.555Z,9.5
2018-07-26T10:32:35.502Z,8.9
2018-07-26T10:33:51.394Z,8.3
2018-07-26T10:35:07.286Z,8.6
2018-07-26T10:36:23.247Z,9.1
2018-07-26T10:37:39.175Z,9.1
2018-07-26T10:38:55.038Z,8.3
2018-07-26T10:40:10.951Z,8.6
2018-07-26T10:41:26.888Z,8.4
2018-07-26T10:42:42.800Z,8.1
2018-07-26T10:43:58.728Z,8.8
2018-07-26T10:45:14.629Z,8.8
2018-07-26T10:46:30.518Z,9.2
2018-07-26T10:47:46.430Z,8.9
2018-07-26T10:49:02.452Z,8.1
2018-07-26T10:50:18.672Z,9.1
2018-07-26T10:51:34.871Z,9.9
2018-07-26T10:52:50.766Z,9.1
2018-07-26T10:54:07.039Z,8.1
2018-07-26T10:55:22.970Z,7.7
2018-07-26T10:56:38.840Z,7.7
2018-07-26T10:57:54.782Z,7.5
2018-07-26T10:59:10.692Z,7.4
2018-07-26T11:00:26.753Z,7.4
2018-07-26T11:01:42.532Z,7.3
2018-07-26T11:02:58.416Z,7.8
2018-07-26T11:04:14.313Z,8
2018-07-26T11:05:30.253Z,8.1
2018-07-26T11:06:46.156Z,7.2
2018-07-26T11:08:02.044Z,7.5
2018-07-26T11:09:17.913Z,6.8
2018-07-26T11:10:33.843Z,6.7
2018-07-26T11:11:49.740Z,6.4
2018-07-26T11:13:05.647Z,6.5
2018-07-26T11:14:21.565Z,6.3
2018-07-26T11:15:37.516Z,7
2018-07-26T11:16:53.365Z,7.3
2018-07-26T11:18:09.318Z,7.3
2018-07-26T11:19:25.291Z,6.1
2018-07-26T11:20:41.266Z,6.2
2018-07-26T11:21:57.219Z,5.5
2018-07-26T11:23:13.128Z,5.7
2018-07-26T11:24:29.069Z,5.3
2018-07-26T11:25:45.174Z,5.6
2018-07-26T11:27:01.149Z,6
2018-07-26T11:28:17.045Z,5.2
2018-07-26T11:29:32.991Z,5.6
2018-07-26T11:30:48.813Z,5.2
2018-07-26T11:32:04.710Z,5.1
2018-07-26T11:33:20.636Z,5
2018-07-26T11:34:36.537Z,5.7
2018-07-26T11:35:52.483Z,5.8
2018-07-26T11:37:08.500Z,4.6
2018-07-26T11:38:24.467Z,4.5
2018-07-26T11:39:40.369Z,3.9
2018-07-26T11:40:56.346Z,2.8
2018-07-26T11:42:12.378Z,2.6
2018-07-26T11:43:28.402Z,2.4
2018-07-26T11:44:44.293Z,2.9
2018-07-26T11:46:00.176Z,3.1
2018-07-26T11:47:16.055Z,2.4
2018-07-26T11:48:32.223Z,2.3
2018-07-26T11:49:48.144Z,2.4
2018-07-26T11:51:04.100Z,2.3
2018-07-26T11:52:20.082Z,2
2018-07-26T11:53:35.991Z,2.3
2018-07-26T11:54:51.930Z,2.3
2018-07-26T11:56:07.844Z,2.2
2018-07-26T11:57:23.793Z,2.4
2018-07-26T11:58:39.684Z,2.6
2018-07-26T11:59:55.703Z,2.1
2018-07-26T12:01:11.612Z,2.2
2018-07-26T12:02:27.603Z,2.2
2018-07-26T12:03:43.419Z,2.5
2018-07-26T12:04:59.328Z,2.4
2018-07-26T12:06:15.227Z,2.6
2018-07-26T12:07:31.141Z,2.3
2018-07-26T12:08:47.050Z,2.4
2018-07-26T12:10:03.021Z,2.1
2018-07-26T12:11:18.920Z,2.6
2018-07-26T12:12:34.821Z,2.2
2018-07-26T12:13:50.809Z,2.7
2018-07-26T12:15:06.720Z,2.1
2018-07-26T12:16:22.607Z,2.3
2018-07-26T12:17:38.681Z,2.4
2018-07-26T12:18:54.568Z,2.2
2018-07-26T12:20:10.518Z,2.3
2018-07-26T12:21:26.485Z,2.3
2018-07-26T12:22:42.383Z,2.3
2018-07-26T12:23:58.365Z,2.2
2018-07-26T12:25:14.337Z,2.4
2018-07-26T12:26:30.198Z,2.3
2018-07-26T12:27:46.214Z,2.1
2018-07-26T12:29:02.087Z,2.3
2018-07-26T12:30:18.014Z,2.1
2018-07-26T12:31:33.857Z,2.2
2018-07-26T12:32:49.804Z,2.3
2018-07-26T12:34:05.724Z,2.5
2018-07-26T12:35:21.639Z,2.3
2018-07-26T12:36:37.534Z,2
2018-07-26T12:37:53.451Z,2.2
2018-07-26T12:39:09.343Z,2.3
2018-07-26T12:40:25.238Z,2.2
2018-07-26T12:41:41.140Z,2.7
2018-07-26T12:42:57.048Z,2.6
2018-07-26T12:44:13.077Z,2.6
2018-07-26T12:45:28.994Z,2.6
2018-07-26T12:48:25.992Z,2.6
2018-07-26T12:49:41.859Z,2.6
2018-07-26T12:50:57.754Z,2.5
2018-07-26T12:52:13.670Z,2.3
2018-07-26T12:53:29.546Z,2.3
2018-07-26T12:54:46.435Z,2.3
2018-07-26T12:56:02.320Z,2.5
2018-07-26T12:57:18.207Z,2.4
2018-07-26T12:58:34.748Z,3.3
2018-07-26T12:59:50.672Z,3.1
2018-07-26T13:01:06.579Z,2.7
2018-07-26T13:02:22.544Z,2.5
2018-07-26T13:03:38.451Z,2.5
2018-07-26T13:04:54.367Z,2.6
2018-07-26T13:06:10.281Z,2.3
2018-07-26T13:07:26.203Z,2.5
2018-07-26T13:08:42.135Z,2.3
2018-07-26T13:09:58.036Z,2.4
2018-07-26T13:11:13.940Z,2.4
2018-07-26T13:12:29.835Z,2.5
2018-07-26T13:13:45.792Z,2.1
2018-07-26T13:15:01.693Z,2.4
2018-07-26T13:16:17.584Z,2.3
2018-07-26T13:17:33.452Z,2.2
2018-07-26T13:18:49.366Z,2.1
2018-07-26T13:20:05.246Z,2.3
2018-07-26T13:21:21.153Z,2.3
2018-07-26T13:22:37.029Z,2.2
2018-07-26T13:23:52.961Z,2.3
2018-07-26T13:25:08.902Z,2.5
2018-07-26T13:26:24.801Z,2.4
2018-07-26T13:27:40.721Z,2.2
2018-07-26T13:28:56.677Z,2.2
2018-07-26T13:30:12.565Z,2.2
2018-07-26T13:31:28.519Z,2.4
2018-07-26T13:32:44.424Z,2.4
2018-07-26T13:34:00.371Z,2.4
2018-07-26T13:35:16.253Z,2.4
2018-07-26T13:36:32.180Z,2.3
2018-07-26T13:37:48.100Z,2.2
2018-07-26T13:39:04.007Z,2
2018-07-26T13:40:20.003Z,2.2
2018-07-26T13:41:35.846Z,2.3
2018-07-26T13:42:51.739Z,2.3
2018-07-26T13:44:07.769Z,2.6
2018-07-26T13:45:23.717Z,2.3
2018-07-26T13:46:39.631Z,2.4
2018-07-26T13:47:55.540Z,2.5
2018-07-26T13:49:11.496Z,2.3
2018-07-26T13:50:27.438Z,2.5
2018-07-26T13:51:43.312Z,2.5
2018-07-26T13:52:59.282Z,2.6
2018-07-26T13:54:15.185Z,2.6
2018-07-26T13:55:31.103Z,2.5
2018-07-26T13:56:47.024Z,2.5
2018-07-26T13:58:02.930Z,2.4
2018-07-26T13:59:18.876Z,2.5
2018-07-26T14:00:34.774Z,2.4
2018-07-26T14:01:50.675Z,2.3
2018-07-26T14:03:06.604Z,2.2
2018-07-26T14:04:22.540Z,2.6
2018-07-26T14:05:38.511Z,2.5
2018-07-26T14:06:54.372Z,2.4
2018-07-26T14:08:10.369Z,2.4
2018-07-26T14:09:26.319Z,2.4
2018-07-26T14:10:42.211Z,2.3
2018-07-26T14:11:58.253Z,2.4
2018-07-26T14:13:14.131Z,2.2
2018-07-26T14:14:30.071Z,2.3
2018-07-26T14:15:46.022Z,2.3
2018-07-26T14:17:01.855Z,2.2
2018-07-26T14:18:17.814Z,2.4
2018-07-26T14:19:33.766Z,2.1
2018-07-26T14:20:49.802Z,2.1
2018-07-26T14:22:06.621Z,2.4
2018-07-26T14:23:22.569Z,2.1
2018-07-26T14:24:38.496Z,2.3
2018-07-26T14:25:54.435Z,2.3
2018-07-26T14:27:10.385Z,2.1
2018-07-26T14:28:26.266Z,2
2018-07-26T14:29:42.215Z,2.2
2018-07-26T14:30:58.090Z,2
2018-07-26T14:32:13.994Z,2.2
2018-07-26T14:33:29.880Z,2
2018-07-26T14:34:45.769Z,2.1
2018-07-26T14:36:01.703Z,2.2
2018-07-26T14:37:17.665Z,2.5
2018-07-26T14:38:33.540Z,2.2
2018-07-26T14:39:49.438Z,2.2
2018-07-26T14:41:05.336Z,2.1
2018-07-26T14:42:21.251Z,2.2
2018-07-26T14:43:37.180Z,2.3
2018-07-26T14:44:53.168Z,2
2018-07-26T14:46:09.023Z,2.2
2018-07-26T14:47:24.960Z,2.1
2018-07-26T14:48:40.897Z,2.1
2018-07-26T14:49:56.923Z,2
2018-07-26T14:51:12.994Z,1.8
2018-07-26T14:52:28.913Z,2.1
2018-07-26T14:53:44.863Z,2.1
2018-07-26T14:55:00.741Z,2
2018-07-26T14:56:16.669Z,2
2018-07-26T14:57:32.626Z,2
2018-07-26T14:58:48.600Z,2.8
2018-07-26T15:00:05.528Z,2.4
2018-07-26T15:01:21.470Z,2.2
2018-07-26T15:02:37.413Z,1.8
2018-07-26T15:03:53.343Z,2.1
2018-07-26T15:05:09.318Z,2.6
2018-07-26T15:06:25.288Z,2.3
2018-07-26T15:07:41.172Z,2.3
2018-07-26T15:08:57.118Z,2
2018-07-26T15:10:13.020Z,2.1
2018-07-26T15:11:28.936Z,2.1
2018-07-26T15:12:44.887Z,2
2018-07-26T15:14:00.819Z,2.2
2018-07-26T15:15:16.708Z,2
2018-07-26T15:16:32.638Z,2.1
2018-07-26T15:17:48.558Z,2.4
2018-07-26T15:19:04.526Z,2.5
2018-07-26T15:20:20.437Z,2.4
2018-07-26T15:21:36.370Z,2.4
2018-07-26T15:22:52.336Z,2.3
2018-07-26T15:24:08.295Z,2.2
2018-07-26T15:25:24.255Z,2
2018-07-26T15:26:40.198Z,2.1
2018-07-26T15:27:56.199Z,2.3
2018-07-26T15:29:12.183Z,2.3
2018-07-26T15:30:28.171Z,2.3
2018-07-26T15:31:44.117Z,2.2
2018-07-26T15:33:00.082Z,2.3
2018-07-26T15:34:15.985Z,2
2018-07-26T15:35:31.981Z,2.2
2018-07-26T15:36:47.912Z,2.3
2018-07-26T15:38:03.928Z,2.3
2018-07-26T15:39:19.859Z,2.3
2018-07-26T15:40:35.823Z,2.3
2018-07-26T15:41:51.747Z,2.1
2018-07-26T15:43:07.752Z,2.4
2018-07-26T15:44:23.846Z,2.9
2018-07-26T15:45:39.897Z,3
2018-07-26T15:46:55.939Z,2.7
2018-07-26T15:48:11.845Z,2.5
2018-07-26T15:49:27.768Z,2.5
2018-07-26T15:50:43.739Z,2.5
2018-07-26T15:51:59.739Z,2.5
2018-07-26T15:53:15.691Z,2.3
2018-07-26T15:54:31.824Z,2.5
2018-07-26T15:55:48.823Z,2.2
2018-07-26T15:57:05.423Z,2.4
2018-07-26T15:58:21.964Z,2.2
2018-07-26T15:59:38.179Z,2.3
2018-07-26T16:02:34.863Z,2.3
2018-07-26T16:03:50.805Z,2.7
2018-07-26T16:05:06.773Z,2.9
2018-07-26T16:06:22.695Z,2.8
2018-07-26T16:07:38.619Z,2.4
2018-07-26T16:08:54.538Z,2.7
2018-07-26T16:10:10.599Z,2.3
2018-07-26T16:11:26.575Z,2.6
2018-07-26T16:14:23.275Z,2.7
2018-07-26T16:15:39.282Z,2.6
2018-07-26T16:16:55.424Z,2.6
2018-07-26T16:18:11.408Z,2.6
2018-07-26T16:19:27.271Z,2.6
2018-07-26T16:20:43.237Z,2.7
2018-07-26T16:21:59.168Z,2.7
2018-07-26T16:23:15.116Z,2.2
2018-07-26T16:24:31.045Z,2.4
2018-07-26T16:25:46.975Z,2.4
2018-07-26T16:27:03.235Z,2.5
2018-07-26T16:28:19.159Z,2.6
2018-07-26T16:29:35.084Z,2.5
2018-07-26T16:30:51.038Z,2.4
2018-07-26T16:32:07.990Z,2.5
2018-07-26T16:33:23.991Z,2.6
2018-07-26T16:34:39.895Z,2.3
2018-07-26T16:35:55.851Z,2.4
2018-07-26T16:37:11.786Z,2.5
2018-07-26T16:38:27.736Z,2.5
2018-07-26T16:39:44.200Z,2.4
2018-07-26T16:41:00.945Z,2.8
2018-07-26T16:42:17.720Z,2.7
2018-07-26T16:43:33.817Z,2.5
2018-07-26T16:44:49.826Z,2.8
2018-07-26T16:46:05.841Z,2.5
2018-07-26T16:47:21.733Z,2.8
2018-07-26T16:48:37.692Z,2.8
2018-07-26T16:49:53.659Z,3
2018-07-26T16:51:09.832Z,2.8
2018-07-26T16:52:25.749Z,2.9
2018-07-26T16:55:23.243Z,2.4
2018-07-26T16:56:39.194Z,3.6
2018-07-26T16:57:55.123Z,2.6
2018-07-26T16:59:11.137Z,2.6
2018-07-26T17:00:27.050Z,2.5
2018-07-26T17:01:43.055Z,2.8
2018-07-26T17:02:58.962Z,2.7
2018-07-26T17:04:14.940Z,2.5
2018-07-26T17:05:30.881Z,2.4
2018-07-26T17:06:46.861Z,2.5
2018-07-26T17:08:02.901Z,2.5
2018-07-26T17:09:18.815Z,2.7
2018-07-26T17:10:34.763Z,2.6
2018-07-26T17:11:50.708Z,2.8
2018-07-26T17:13:06.641Z,2.7
2018-07-26T17:14:22.653Z,2.5
2018-07-26T17:15:38.621Z,2.4
2018-07-26T17:16:54.575Z,2.6
2018-07-26T17:18:10.516Z,2.9
2018-07-26T17:19:26.483Z,2.4
2018-07-26T17:20:42.572Z,2.9
2018-07-26T17:21:58.547Z,2.7
2018-07-26T17:23:15.097Z,2.5
2018-07-26T17:24:31.056Z,2.7
2018-07-26T17:25:47.039Z,2.5
2018-07-26T17:27:02.994Z,2.7
2018-07-26T17:28:18.988Z,2.7
2018-07-26T17:29:34.876Z,2.6
2018-07-26T17:30:51.895Z,2.6
2018-07-26T17:32:07.829Z,2.9
2018-07-26T17:33:23.917Z,3.2
2018-07-26T17:34:39.935Z,2.7
2018-07-26T17:35:55.883Z,3.1
2018-07-26T17:37:11.883Z,2.8
2018-07-26T17:38:27.929Z,3
2018-07-26T17:39:43.977Z,2.8
2018-07-26T17:40:59.996Z,2.7
2018-07-26T17:42:15.912Z,2.5
2018-07-26T17:43:32.964Z,2.7
2018-07-26T17:44:48.951Z,2.9
2018-07-26T17:46:04.991Z,2.7
2018-07-26T17:47:20.956Z,2.8
2018-07-26T17:48:36.988Z,2.9